ADDS METAR Data INFO
IDs: Format: Raw Decoded Include TAF

Data at: 2205 UTC 14 Aug 2018

METAR for:KHLX (Hillsville/Twin Cnty, VA, US)
Text:KHLX 142155Z AUTO 30008KT 10SM OVC100 25/15 A3008 RMK AO2 T02530150
Temperature: 25.3°C ( 78°F)
Dewpoint: 15.0°C ( 59°F) [RH = 53%]
Pressure (altimeter):30.08 inches Hg (1018.7 mb)
Winds:from the WNW (300 degrees) at 9 MPH (8 knots; 4.1 m/s)
Visibility:10 or more sm (16+ km)
Ceiling:10000 feet AGL
Clouds: overcast cloud deck at 10000 feet AGL
QC Flag:automated observation with no human augmentation